sensor_id;sensor_type;location;lat;lon;timestamp;pressure;altitude;pressure_sealevel;temperature;humidity
8705;BME280;4389;41.932;25.904;2023-08-08T00:00:59;-16683.28;;;23.13;71.77
8705;BME280;4389;41.932;25.904;2023-08-08T00:03:26;-16686.72;;;23.26;71.74
8705;BME280;4389;41.932;25.904;2023-08-08T00:05:53;-16690.00;;;23.39;71.51
8705;BME280;4389;41.932;25.904;2023-08-08T00:08:21;-16689.63;;;23.37;72.03
8705;BME280;4389;41.932;25.904;2023-08-08T00:10:48;-16689.63;;;23.37;71.98
8705;BME280;4389;41.932;25.904;2023-08-08T00:13:15;-16692.91;;;23.50;72.00
8705;BME280;4389;41.932;25.904;2023-08-08T00:15:42;-16694.38;;;23.55;72.08
8705;BME280;4389;41.932;25.904;2023-08-08T00:18:09;-16694.91;;;23.57;72.02
8705;BME280;4389;41.932;25.904;2023-08-08T00:20:36;-16695.56;;;23.60;72.03
8705;BME280;4389;41.932;25.904;2023-08-08T00:23:03;-16693.44;;;23.52;72.33
8705;BME280;4389;41.932;25.904;2023-08-08T00:25:31;-16698.06;;;23.69;71.90
8705;BME280;4389;41.932;25.904;2023-08-08T00:27:58;-16698.06;;;23.69;72.16
8705;BME280;4389;41.932;25.904;2023-08-08T00:30:25;-16697.28;;;23.66;72.73
8705;BME280;4389;41.932;25.904;2023-08-08T00:32:52;-16696.75;;;23.64;73.63
8705;BME280;4389;41.932;25.904;2023-08-08T00:35:18;-16694.25;;;23.55;75.01
8705;BME280;4389;41.932;25.904;2023-08-08T00:37:45;-16695.94;;;23.61;75.47
8705;BME280;4389;41.932;25.904;2023-08-08T00:40:12;-16692.78;;;23.49;74.53
8705;BME280;4389;41.932;25.904;2023-08-08T00:42:40;-16693.31;;;23.51;73.78
8705;BME280;4389;41.932;25.904;2023-08-08T00:45:08;-16691.34;;;23.44;70.89
8705;BME280;4389;41.932;25.904;2023-08-08T00:47:35;-16689.34;;;23.36;68.96
8705;BME280;4389;41.932;25.904;2023-08-08T00:50:03;-16685.25;;;23.21;66.74
8705;BME280;4389;41.932;25.904;2023-08-08T00:52:30;-16686.31;;;23.25;64.06
8705;BME280;4389;41.932;25.904;2023-08-08T00:54:57;-16688.28;;;23.32;62.53
8705;BME280;4389;41.932;25.904;2023-08-08T00:57:25;-16685.78;;;23.23;59.93
8705;BME280;4389;41.932;25.904;2023-08-08T00:59:54;-16682.75;;;23.11;59.95
8705;BME280;4389;41.932;25.904;2023-08-08T01:02:20;-16681.69;;;23.07;59.31
8705;BME280;4389;41.932;25.904;2023-08-08T01:04:47;-16683.66;;;23.15;59.29
8705;BME280;4389;41.932;25.904;2023-08-08T01:07:19;-16681.81;;;23.08;58.75
8705;BME280;4389;41.932;25.904;2023-08-08T01:09:53;-16682.88;;;23.12;58.88
8705;BME280;4389;41.932;25.904;2023-08-08T01:12:22;-16679.31;;;22.98;59.35
8705;BME280;4389;41.932;25.904;2023-08-08T01:14:51;-16677.47;;;22.91;60.44
8705;BME280;4389;41.932;25.904;2023-08-08T01:17:21;-16676.16;;;22.86;60.84
8705;BME280;4389;41.932;25.904;2023-08-08T01:19:48;-16675.09;;;22.82;61.11
8705;BME280;4389;41.932;25.904;2023-08-08T01:22:23;-16674.03;;;22.78;61.14
8705;BME280;4389;41.932;25.904;2023-08-08T01:24:54;-16673.38;;;22.76;61.42
8705;BME280;4389;41.932;25.904;2023-08-08T01:27:21;-16674.03;;;22.78;61.44
8705;BME280;4389;41.932;25.904;2023-08-08T01:29:48;-16673.38;;;22.76;61.48
8705;BME280;4389;41.932;25.904;2023-08-08T01:32:15;-16671.00;;;22.67;60.98
8705;BME280;4389;41.932;25.904;2023-08-08T01:34:42;-16666.50;;;22.50;62.01
8705;BME280;4389;41.932;25.904;2023-08-08T01:37:13;-16665.59;;;22.46;62.01
8705;BME280;4389;41.932;25.904;2023-08-08T01:39:42;-16665.06;;;22.44;61.93
8705;BME280;4389;41.932;25.904;2023-08-08T01:42:12;-16665.84;;;22.47;62.54
8705;BME280;4389;41.932;25.904;2023-08-08T01:44:41;-16669.69;;;22.62;62.00
8705;BME280;4389;41.932;25.904;2023-08-08T01:47:08;-16668.22;;;22.56;61.61
8705;BME280;4389;41.932;25.904;2023-08-08T01:49:35;-16667.16;;;22.52;62.79
8705;BME280;4389;41.932;25.904;2023-08-08T01:52:02;-16665.31;;;22.45;64.02
8705;BME280;4389;41.932;25.904;2023-08-08T01:54:31;-16660.56;;;22.27;65.01
8705;BME280;4389;41.932;25.904;2023-08-08T01:56:57;-16657.66;;;22.16;65.25
8705;BME280;4389;41.932;25.904;2023-08-08T01:59:26;-16657.91;;;22.17;65.29
8705;BME280;4389;41.932;25.904;2023-08-08T02:01:52;-16656.47;;;22.12;65.47
8705;BME280;4389;41.932;25.904;2023-08-08T02:04:19;-16656.06;;;22.10;65.81
8705;BME280;4389;41.932;25.904;2023-08-08T02:06:46;-16658.72;;;22.20;65.21
8705;BME280;4389;41.932;25.904;2023-08-08T02:09:13;-16658.56;;;22.20;66.22
8705;BME280;4389;41.932;25.904;2023-08-08T02:11:41;-16657.38;;;22.15;66.49
8705;BME280;4389;41.932;25.904;2023-08-08T02:14:07;-16657.13;;;22.14;66.20
8705;BME280;4389;41.932;25.904;2023-08-08T02:16:36;-16657.66;;;22.16;66.41
8705;BME280;4389;41.932;25.904;2023-08-08T02:19:02;-16657.25;;;22.15;66.75
8705;BME280;4389;41.932;25.904;2023-08-08T02:21:29;-16655.94;;;22.10;66.33
8705;BME280;4389;41.932;25.904;2023-08-08T02:23:56;-16656.59;;;22.12;66.68
8705;BME280;4389;41.932;25.904;2023-08-08T02:26:24;-16654.22;;;22.03;67.29
8705;BME280;4389;41.932;25.904;2023-08-08T02:28:51;-16654.47;;;22.04;67.47
8705;BME280;4389;41.932;25.904;2023-08-08T02:31:18;-16655.00;;;22.06;67.10
8705;BME280;4389;41.932;25.904;2023-08-08T02:33:48;-16653.03;;;21.99;67.86
8705;BME280;4389;41.932;25.904;2023-08-08T02:36:16;-16653.69;;;22.01;67.76
8705;BME280;4389;41.932;25.904;2023-08-08T02:38:43;-16657.25;;;22.15;67.25
8705;BME280;4389;41.932;25.904;2023-08-08T02:41:10;-16658.19;;;22.18;67.26
8705;BME280;4389;41.932;25.904;2023-08-08T02:43:37;-16655.28;;;22.07;67.13
8705;BME280;4389;41.932;25.904;2023-08-08T02:46:03;-16654.75;;;22.05;67.99
8705;BME280;4389;41.932;25.904;2023-08-08T02:48:30;-16655.28;;;22.07;68.07
8705;BME280;4389;41.932;25.904;2023-08-08T02:50:58;-16653.69;;;22.01;68.31
8705;BME280;4389;41.932;25.904;2023-08-08T02:53:25;-16651.84;;;21.94;68.68
8705;BME280;4389;41.932;25.904;2023-08-08T02:55:52;-16651.03;;;21.91;69.70
8705;BME280;4389;41.932;25.904;2023-08-08T02:58:19;-16651.31;;;21.92;70.01
8705;BME280;4389;41.932;25.904;2023-08-08T03:00:46;-16649.47;;;21.85;69.93
8705;BME280;4389;41.932;25.904;2023-08-08T03:03:12;-16648.81;;;21.83;70.12
8705;BME280;4389;41.932;25.904;2023-08-08T03:05:39;-16650.13;;;21.88;70.02
8705;BME280;4389;41.932;25.904;2023-08-08T03:08:08;-16651.19;;;21.92;70.39
8705;BME280;4389;41.932;25.904;2023-08-08T03:10:34;-16652.63;;;21.97;70.41
8705;BME280;4389;41.932;25.904;2023-08-08T03:13:01;-16652.91;;;21.98;70.51
8705;BME280;4389;41.932;25.904;2023-08-08T03:15:28;-16650.25;;;21.88;71.19
8705;BME280;4389;41.932;25.904;2023-08-08T03:17:56;-16649.59;;;21.86;71.60
8705;BME280;4389;41.932;25.904;2023-08-08T03:20:23;-16650.13;;;21.88;71.34
8705;BME280;4389;41.932;25.904;2023-08-08T03:22:50;-16648.94;;;21.83;71.63
8705;BME280;4389;41.932;25.904;2023-08-08T03:25:18;-16647.34;;;21.77;71.97
8705;BME280;4389;41.932;25.904;2023-08-08T03:27:45;-16646.16;;;21.73;72.15
8705;BME280;4389;41.932;25.904;2023-08-08T03:30:13;-16647.34;;;21.77;72.34
8705;BME280;4389;41.932;25.904;2023-08-08T03:32:41;-16647.88;;;21.79;72.34
8705;BME280;4389;41.932;25.904;2023-08-08T03:35:08;-16645.75;;;21.71;72.38
8705;BME280;4389;41.932;25.904;2023-08-08T03:37:35;-16648.66;;;21.82;71.67
8705;BME280;4389;41.932;25.904;2023-08-08T03:40:03;-16651.56;;;21.93;71.77
8705;BME280;4389;41.932;25.904;2023-08-08T03:42:31;-16657.25;;;22.15;71.25
8705;BME280;4389;41.932;25.904;2023-08-08T03:44:58;-16657.66;;;22.16;70.45
8705;BME280;4389;41.932;25.904;2023-08-08T03:47:25;-16657.91;;;22.17;70.98
8705;BME280;4389;41.932;25.904;2023-08-08T03:49:51;-16656.72;;;22.13;71.09
8705;BME280;4389;41.932;25.904;2023-08-08T03:52:20;-16662.00;;;22.33;70.73
8705;BME280;4389;41.932;25.904;2023-08-08T03:54:47;-16662.53;;;22.35;70.61
8705;BME280;4389;41.932;25.904;2023-08-08T03:57:14;-16661.63;;;22.31;70.68
8705;BME280;4389;41.932;25.904;2023-08-08T03:59:42;-16661.22;;;22.30;70.93
8705;BME280;4389;41.932;25.904;2023-08-08T04:02:09;-16657.25;;;22.15;71.64
8705;BME280;4389;41.932;25.904;2023-08-08T04:04:36;-16660.56;;;22.27;71.34
8705;BME280;4389;41.932;25.904;2023-08-08T04:07:04;-16663.72;;;22.39;71.12
8705;BME280;4389;41.932;25.904;2023-08-08T04:09:31;-16667.44;;;22.53;71.24
8705;BME280;4389;41.932;25.904;2023-08-08T04:11:58;-16689.34;;;23.36;67.25
8705;BME280;4389;41.932;25.904;2023-08-08T04:14:25;-16682.75;;;23.11;67.35
8705;BME280;4389;41.932;25.904;2023-08-08T04:16:53;-16687.91;;;23.31;67.22
8705;BME280;4389;41.932;25.904;2023-08-08T04:19:20;-16679.97;;;23.01;67.67
8705;BME280;4389;41.932;25.904;2023-08-08T04:21:47;-16681.81;;;23.08;68.07
8705;BME280;4389;41.932;25.904;2023-08-08T04:24:13;-16688.03;;;23.31;66.17
8705;BME280;4389;41.932;25.904;2023-08-08T04:26:40;-16685.41;;;23.21;67.03
8705;BME280;4389;41.932;25.904;2023-08-08T04:29:07;-16681.44;;;23.06;67.60
8705;BME280;4389;41.932;25.904;2023-08-08T04:31:34;-16677.19;;;22.90;68.49
8705;BME280;4389;41.932;25.904;2023-08-08T04:34:02;-16679.84;;;23.00;68.67
8705;BME280;4389;41.932;25.904;2023-08-08T04:36:30;-16676.00;;;22.86;69.57
8705;BME280;4389;41.932;25.904;2023-08-08T04:38:57;-16675.09;;;22.82;69.80
8705;BME280;4389;41.932;25.904;2023-08-08T04:41:23;-16674.03;;;22.78;70.28
8705;BME280;4389;41.932;25.904;2023-08-08T04:43:50;-16674.81;;;22.81;70.04
8705;BME280;4389;41.932;25.904;2023-08-08T04:46:18;-16675.22;;;22.83;70.96
8705;BME280;4389;41.932;25.904;2023-08-08T04:48:44;-16675.09;;;22.82;70.85
8705;BME280;4389;41.932;25.904;2023-08-08T04:51:13;-16677.88;;;22.93;70.12
8705;BME280;4389;41.932;25.904;2023-08-08T04:53:39;-16678.00;;;22.93;70.66
8705;BME280;4389;41.932;25.904;2023-08-08T04:56:06;-16679.19;;;22.98;70.14
8705;BME280;4389;41.932;25.904;2023-08-08T04:58:33;-16679.31;;;22.98;70.34
8705;BME280;4389;41.932;25.904;2023-08-08T05:01:00;-16680.63;;;23.03;69.49
8705;BME280;4389;41.932;25.904;2023-08-08T05:03:27;-16684.06;;;23.16;69.48
8705;BME280;4389;41.932;25.904;2023-08-08T05:05:53;-16683.16;;;23.13;69.18
8705;BME280;4389;41.932;25.904;2023-08-08T05:08:21;-16686.59;;;23.26;69.67
8705;BME280;4389;41.932;25.904;2023-08-08T05:10:48;-16686.97;;;23.27;69.18
8705;BME280;4389;41.932;25.904;2023-08-08T05:13:15;-16686.97;;;23.27;69.19
8705;BME280;4389;41.932;25.904;2023-08-08T05:15:42;-16690.41;;;23.40;68.81
8705;BME280;4389;41.932;25.904;2023-08-08T05:18:08;-16695.69;;;23.60;68.22
8705;BME280;4389;41.932;25.904;2023-08-08T05:20:35;-16694.09;;;23.54;67.18
8705;BME280;4389;41.932;25.904;2023-08-08T05:23:02;-16700.72;;;23.79;67.39
8705;BME280;4389;41.932;25.904;2023-08-08T05:25:30;-16709.94;;;24.14;65.05
8705;BME280;4389;41.932;25.904;2023-08-08T05:27:57;-16709.69;;;24.13;64.56
8705;BME280;4389;41.932;25.904;2023-08-08T05:30:24;-16713.63;;;24.28;65.16
8705;BME280;4389;41.932;25.904;2023-08-08T05:32:51;-16712.59;;;24.24;65.27
8705;BME280;4389;41.932;25.904;2023-08-08T05:35:18;-16714.44;;;24.31;65.01
8705;BME280;4389;41.932;25.904;2023-08-08T05:37:45;-16712.59;;;24.24;64.72
8705;BME280;4389;41.932;25.904;2023-08-08T05:40:12;-16707.03;;;24.03;64.48
8705;BME280;4389;41.932;25.904;2023-08-08T05:42:40;-16700.84;;;23.80;65.99
8705;BME280;4389;41.932;25.904;2023-08-08T05:45:08;-16692.00;;;23.46;67.27
8705;BME280;4389;41.932;25.904;2023-08-08T05:47:35;-16686.44;;;23.25;67.89
8705;BME280;4389;41.932;25.904;2023-08-08T05:50:02;-16681.56;;;23.07;69.06
8705;BME280;4389;41.932;25.904;2023-08-08T05:52:29;-16679.72;;;23.00;69.57
8705;BME280;4389;41.932;25.904;2023-08-08T05:54:56;-16683.28;;;23.13;69.53
8705;BME280;4389;41.932;25.904;2023-08-08T05:57:24;-16678.25;;;22.94;69.46
8705;BME280;4389;41.932;25.904;2023-08-08T05:59:53;-16679.59;;;22.99;69.30
8705;BME280;4389;41.932;25.904;2023-08-08T06:02:19;-16667.44;;;22.53;69.54
8705;BME280;4389;41.932;25.904;2023-08-08T06:04:46;-16668.88;;;22.59;70.48
8705;BME280;4389;41.932;25.904;2023-08-08T06:07:13;-16669.28;;;22.60;70.49
8705;BME280;4389;41.932;25.904;2023-08-08T06:09:40;-16673.25;;;22.75;70.49
8705;BME280;4389;41.932;25.904;2023-08-08T06:12:08;-16669.53;;;22.61;70.76
8705;BME280;4389;41.932;25.904;2023-08-08T06:14:35;-16670.88;;;22.66;70.57
8705;BME280;4389;41.932;25.904;2023-08-08T06:17:03;-16669.00;;;22.59;71.75
8705;BME280;4389;41.932;25.904;2023-08-08T06:19:30;-16666.38;;;22.49;70.98
8705;BME280;4389;41.932;25.904;2023-08-08T06:21:57;-16660.56;;;22.27;71.98
8705;BME280;4389;41.932;25.904;2023-08-08T06:24:24;-16664.91;;;22.44;71.42
8705;BME280;4389;41.932;25.904;2023-08-08T06:26:51;-16663.72;;;22.39;71.13
8705;BME280;4389;41.932;25.904;2023-08-08T06:29:18;-16658.56;;;22.20;71.06
8705;BME280;4389;41.932;25.904;2023-08-08T06:31:44;-16661.75;;;22.32;70.75
8705;BME280;4389;41.932;25.904;2023-08-08T06:34:12;-16663.47;;;22.38;70.76
8705;BME280;4389;41.932;25.904;2023-08-08T06:36:40;-16666.63;;;22.50;70.58
8705;BME280;4389;41.932;25.904;2023-08-08T06:39:07;-16668.88;;;22.59;70.60
8705;BME280;4389;41.932;25.904;2023-08-08T06:41:34;-16666.91;;;22.51;68.37
8705;BME280;4389;41.932;25.904;2023-08-08T06:44:01;-16666.91;;;22.51;68.53
8705;BME280;4389;41.932;25.904;2023-08-08T06:46:29;-16671.66;;;22.69;68.16
8705;BME280;4389;41.932;25.904;2023-08-08T06:48:55;-16681.16;;;23.05;67.46
8705;BME280;4389;41.932;25.904;2023-08-08T06:51:26;-16681.28;;;23.06;66.40
8705;BME280;4389;41.932;25.904;2023-08-08T06:53:53;-16673.50;;;22.76;66.49
8705;BME280;4389;41.932;25.904;2023-08-08T06:56:20;-16675.63;;;22.84;66.96
8705;BME280;4389;41.932;25.904;2023-08-08T06:58:47;-16675.88;;;22.85;66.44
8705;BME280;4389;41.932;25.904;2023-08-08T07:01:13;-16679.84;;;23.00;66.28
8705;BME280;4389;41.932;25.904;2023-08-08T07:03:40;-16685.53;;;23.22;65.12
8705;BME280;4389;41.932;25.904;2023-08-08T07:06:07;-16690.41;;;23.40;65.45
8705;BME280;4389;41.932;25.904;2023-08-08T07:08:35;-16690.16;;;23.39;64.69
8705;BME280;4389;41.932;25.904;2023-08-08T07:11:05;-16697.81;;;23.68;62.94
8705;BME280;4389;41.932;25.904;2023-08-08T07:13:32;-16694.09;;;23.54;62.67
8705;BME280;4389;41.932;25.904;2023-08-08T07:15:59;-16685.25;;;23.21;61.76
8705;BME280;4389;41.932;25.904;2023-08-08T07:18:26;-16668.22;;;22.56;60.12
8705;BME280;4389;41.932;25.904;2023-08-08T07:20:52;-16658.56;;;22.20;61.01
8705;BME280;4389;41.932;25.904;2023-08-08T07:23:19;-16657.66;;;22.16;60.19
8705;BME280;4389;41.932;25.904;2023-08-08T07:25:48;-16659.50;;;22.23;60.48
8705;BME280;4389;41.932;25.904;2023-08-08T07:28:15;-16667.97;;;22.55;58.41
8705;BME280;4389;41.932;25.904;2023-08-08T07:30:41;-16672.72;;;22.73;57.91
8705;BME280;4389;41.932;25.904;2023-08-08T07:33:08;-16674.16;;;22.79;57.41
8705;BME280;4389;41.932;25.904;2023-08-08T07:35:35;-16661.09;;;22.29;57.70
8705;BME280;4389;41.932;25.904;2023-08-08T07:38:02;-16660.03;;;22.25;57.74
8705;BME280;4389;41.932;25.904;2023-08-08T07:40:29;-16667.97;;;22.55;57.26
8705;BME280;4389;41.932;25.904;2023-08-08T07:42:57;-16674.56;;;22.80;56.16
8705;BME280;4389;41.932;25.904;2023-08-08T07:45:24;-16675.22;;;22.83;56.47
8705;BME280;4389;41.932;25.904;2023-08-08T07:47:51;-16683.81;;;23.15;56.48
8705;BME280;4389;41.932;25.904;2023-08-08T07:50:18;-16676.41;;;22.87;57.04
8705;BME280;4389;41.932;25.904;2023-08-08T07:52:45;-16671.94;;;22.70;58.52
8705;BME280;4389;41.932;25.904;2023-08-08T07:55:11;-16670.06;;;22.63;57.52
8705;BME280;4389;41.932;25.904;2023-08-08T07:57:38;-16671.66;;;22.69;57.89
8705;BME280;4389;41.932;25.904;2023-08-08T08:00:08;-16665.59;;;22.46;59.15
8705;BME280;4389;41.932;25.904;2023-08-08T08:02:37;-16671.66;;;22.69;59.17
8705;BME280;4389;41.932;25.904;2023-08-08T08:05:04;-16678.53;;;22.95;57.76
8705;BME280;4389;41.932;25.904;2023-08-08T08:07:33;-16669.41;;;22.61;58.38
8705;BME280;4389;41.932;25.904;2023-08-08T08:10:00;-16658.97;;;22.21;59.43
8705;BME280;4389;41.932;25.904;2023-08-08T08:12:27;-16660.16;;;22.26;60.51
8705;BME280;4389;41.932;25.904;2023-08-08T08:14:55;-16656.31;;;22.11;61.88
8705;BME280;4389;41.932;25.904;2023-08-08T08:17:23;-16647.06;;;21.76;63.29
8705;BME280;4389;41.932;25.904;2023-08-08T08:19:50;-16655.81;;;22.09;63.13
8705;BME280;4389;41.932;25.904;2023-08-08T08:22:17;-16655.66;;;22.09;63.09
8705;BME280;4389;41.932;25.904;2023-08-08T08:24:43;-16649.31;;;21.85;63.86
8705;BME280;4389;41.932;25.904;2023-08-08T08:27:11;-16652.91;;;21.98;63.74
8705;BME280;4389;41.932;25.904;2023-08-08T08:29:38;-16650.78;;;21.90;64.38
8705;BME280;4389;41.932;25.904;2023-08-08T08:32:05;-16648.41;;;21.81;64.86
8705;BME280;4389;41.932;25.904;2023-08-08T08:34:33;-16650.25;;;21.88;65.58
8705;BME280;4389;41.932;25.904;2023-08-08T08:37:00;-16663.34;;;22.38;63.84
8705;BME280;4389;41.932;25.904;2023-08-08T08:39:28;-16679.31;;;22.98;61.16
8705;BME280;4389;41.932;25.904;2023-08-08T08:41:59;-16679.06;;;22.97;60.96
8705;BME280;4389;41.932;25.904;2023-08-08T08:44:30;-16673.91;;;22.78;61.01
8705;BME280;4389;41.932;25.904;2023-08-08T08:46:59;-16676.16;;;22.86;60.16
8705;BME280;4389;41.932;25.904;2023-08-08T08:49:29;-16658.19;;;22.18;61.92
8705;BME280;4389;41.932;25.904;2023-08-08T08:51:59;-16668.75;;;22.58;61.68
8705;BME280;4389;41.932;25.904;2023-08-08T08:54:27;-16679.31;;;22.98;60.36
8705;BME280;4389;41.932;25.904;2023-08-08T08:56:56;-16683.00;;;23.12;59.86
8705;BME280;4389;41.932;25.904;2023-08-08T08:59:23;-16677.47;;;22.91;59.58
8705;BME280;4389;41.932;25.904;2023-08-08T09:01:50;-16671.78;;;22.70;60.30
8705;BME280;4389;41.932;25.904;2023-08-08T09:04:19;-16667.44;;;22.53;62.15
8705;BME280;4389;41.932;25.904;2023-08-08T09:06:48;-16668.75;;;22.58;62.18
8705;BME280;4389;41.932;25.904;2023-08-08T09:09:16;-16673.91;;;22.78;62.20
8705;BME280;4389;41.932;25.904;2023-08-08T09:11:48;-16662.41;;;22.34;62.23
8705;BME280;4389;41.932;25.904;2023-08-08T09:14:20;-16663.47;;;22.38;62.92
8705;BME280;4389;41.932;25.904;2023-08-08T09:16:48;-16665.44;;;22.46;63.79
8705;BME280;4389;41.932;25.904;2023-08-08T09:19:15;-16663.47;;;22.38;63.27
8705;BME280;4389;41.932;25.904;2023-08-08T09:21:43;-16650.25;;;21.88;66.05
8705;BME280;4389;41.932;25.904;2023-08-08T09:24:10;-16653.94;;;22.02;65.54
8705;BME280;4389;41.932;25.904;2023-08-08T09:26:38;-16657.66;;;22.16;62.94
8705;BME280;4389;41.932;25.904;2023-08-08T09:29:05;-16662.66;;;22.35;63.38
8705;BME280;4389;41.932;25.904;2023-08-08T09:31:34;-16650.66;;;21.90;63.45
8705;BME280;4389;41.932;25.904;2023-08-08T09:34:02;-16666.78;;;22.51;61.53
8705;BME280;4389;41.932;25.904;2023-08-08T09:36:30;-16669.53;;;22.61;62.31
8705;BME280;4389;41.932;25.904;2023-08-08T09:38:57;-16665.31;;;22.45;61.34
8705;BME280;4389;41.932;25.904;2023-08-08T09:41:24;-16668.50;;;22.57;60.85
8705;BME280;4389;41.932;25.904;2023-08-08T09:43:53;-16676.53;;;22.88;60.91
8705;BME280;4389;41.932;25.904;2023-08-08T09:46:21;-16670.34;;;22.64;61.79
8705;BME280;4389;41.932;25.904;2023-08-08T09:48:49;-16678.78;;;22.96;62.02
8705;BME280;4389;41.932;25.904;2023-08-08T09:51:16;-16668.50;;;22.57;61.98
8705;BME280;4389;41.932;25.904;2023-08-08T09:53:43;-16671.13;;;22.67;62.45
8705;BME280;4389;41.932;25.904;2023-08-08T09:56:13;-16667.44;;;22.53;63.95
8705;BME280;4389;41.932;25.904;2023-08-08T09:58:41;-16652.09;;;21.95;64.23
8705;BME280;4389;41.932;25.904;2023-08-08T10:01:10;-16668.09;;;22.56;63.72
8705;BME280;4389;41.932;25.904;2023-08-08T10:03:38;-16655.53;;;22.08;64.39
8705;BME280;4389;41.932;25.904;2023-08-08T10:06:08;-16671.38;;;22.68;64.03
8705;BME280;4389;41.932;25.904;2023-08-08T10:08:36;-16672.19;;;22.71;64.06
8705;BME280;4389;41.932;25.904;2023-08-08T10:11:04;-16667.31;;;22.53;64.07
8705;BME280;4389;41.932;25.904;2023-08-08T10:13:32;-16679.19;;;22.98;62.88
8705;BME280;4389;41.932;25.904;2023-08-08T10:16:04;-16675.88;;;22.85;62.87
8705;BME280;4389;41.932;25.904;2023-08-08T10:18:35;-16684.06;;;23.16;61.86
8705;BME280;4389;41.932;25.904;2023-08-08T10:21:04;-16679.44;;;22.99;61.93
8705;BME280;4389;41.932;25.904;2023-08-08T10:23:35;-16685.66;;;23.22;61.56
8705;BME280;4389;41.932;25.904;2023-08-08T10:26:03;-16673.25;;;22.75;61.32
8705;BME280;4389;41.932;25.904;2023-08-08T10:28:32;-16680.91;;;23.04;61.03
8705;BME280;4389;41.932;25.904;2023-08-08T10:31:00;-16676.53;;;22.88;60.95
8705;BME280;4389;41.932;25.904;2023-08-08T10:33:42;-16671.66;;;22.69;63.12
8705;BME280;4389;41.932;25.904;2023-08-08T10:36:10;-16691.88;;;23.46;61.00
8705;BME280;4389;41.932;25.904;2023-08-08T10:38:40;-16686.19;;;23.24;59.56
8705;BME280;4389;41.932;25.904;2023-08-08T10:41:10;-16699.66;;;23.75;59.59
8705;BME280;4389;41.932;25.904;2023-08-08T10:43:37;-16689.34;;;23.36;59.06
8705;BME280;4389;41.932;25.904;2023-08-08T10:46:06;-16691.47;;;23.44;60.73
8705;BME280;4389;41.932;25.904;2023-08-08T10:48:33;-16700.19;;;23.77;59.84
8705;BME280;4389;41.932;25.904;2023-08-08T10:51:01;-16684.47;;;23.18;59.23
8705;BME280;4389;41.932;25.904;2023-08-08T10:53:29;-16686.59;;;23.26;60.79
8705;BME280;4389;41.932;25.904;2023-08-08T10:56:01;-16691.19;;;23.43;60.16
8705;BME280;4389;41.932;25.904;2023-08-08T10:58:37;-16675.88;;;22.85;62.66
8705;BME280;4389;41.932;25.904;2023-08-08T11:01:05;-16674.31;;;22.79;61.37
8705;BME280;4389;41.932;25.904;2023-08-08T11:03:35;-16674.03;;;22.78;62.26
8705;BME280;4389;41.932;25.904;2023-08-08T11:06:05;-16669.81;;;22.62;61.25
8705;BME280;4389;41.932;25.904;2023-08-08T11:08:32;-16678.25;;;22.94;60.55
8705;BME280;4389;41.932;25.904;2023-08-08T11:11:00;-16676.16;;;22.86;59.32
8705;BME280;4389;41.932;25.904;2023-08-08T11:13:28;-16683.00;;;23.12;58.28
8705;BME280;4389;41.932;25.904;2023-08-08T11:15:55;-16689.63;;;23.37;56.76
8705;BME280;4389;41.932;25.904;2023-08-08T11:18:22;-16684.22;;;23.17;57.95
8705;BME280;4389;41.932;25.904;2023-08-08T11:20:50;-16689.47;;;23.37;57.45
8705;BME280;4389;41.932;25.904;2023-08-08T11:23:18;-16690.16;;;23.39;57.44
8705;BME280;4389;41.932;25.904;2023-08-08T11:25:48;-16692.00;;;23.46;58.33
8705;BME280;4389;41.932;25.904;2023-08-08T11:28:16;-16690.69;;;23.41;56.67
8705;BME280;4389;41.932;25.904;2023-08-08T11:30:45;-16695.69;;;23.60;58.49
8705;BME280;4389;41.932;25.904;2023-08-08T11:33:13;-16693.72;;;23.53;59.59
8705;BME280;4389;41.932;25.904;2023-08-08T11:35:44;-16680.63;;;23.03;58.52
8705;BME280;4389;41.932;25.904;2023-08-08T11:38:15;-16675.34;;;22.83;59.66
8705;BME280;4389;41.932;25.904;2023-08-08T11:40:43;-16676.94;;;22.89;60.62
8705;BME280;4389;41.932;25.904;2023-08-08T11:43:11;-16678.00;;;22.93;62.06
8705;BME280;4389;41.932;25.904;2023-08-08T11:45:39;-16689.09;;;23.35;62.71
8705;BME280;4389;41.932;25.904;2023-08-08T11:48:08;-16683.41;;;23.14;62.85
8705;BME280;4389;41.932;25.904;2023-08-08T11:50:37;-16686.97;;;23.27;63.98
8705;BME280;4389;41.932;25.904;2023-08-08T11:53:04;-16692.25;;;23.47;64.07
8705;BME280;4389;41.932;25.904;2023-08-08T11:55:31;-16691.47;;;23.44;63.62
8705;BME280;4389;41.932;25.904;2023-08-08T11:58:00;-16699.38;;;23.74;62.95
8705;BME280;4389;41.932;25.904;2023-08-08T12:00:27;-16702.81;;;23.87;62.93
8705;BME280;4389;41.932;25.904;2023-08-08T12:02:55;-16705.84;;;23.99;62.25
8705;BME280;4389;41.932;25.904;2023-08-08T12:05:22;-16696.47;;;23.63;63.79
8705;BME280;4389;41.932;25.904;2023-08-08T12:07:49;-16702.56;;;23.86;62.40
8705;BME280;4389;41.932;25.904;2023-08-08T12:10:18;-16710.06;;;24.15;61.23
8705;BME280;4389;41.932;25.904;2023-08-08T12:12:46;-16717.59;;;24.43;60.60
8705;BME280;4389;41.932;25.904;2023-08-08T12:15:15;-16717.34;;;24.42;59.20
8705;BME280;4389;41.932;25.904;2023-08-08T12:17:42;-16723.66;;;24.66;59.02
8705;BME280;4389;41.932;25.904;2023-08-08T12:20:10;-16730.25;;;24.91;58.34
8705;BME280;4389;41.932;25.904;2023-08-08T12:22:37;-16731.59;;;24.96;58.26
8705;BME280;4389;41.932;25.904;2023-08-08T12:25:04;-16739.50;;;25.26;56.84
8705;BME280;4389;41.932;25.904;2023-08-08T12:27:32;-16742.78;;;25.38;52.34
8705;BME280;4389;41.932;25.904;2023-08-08T12:29:59;-16738.72;;;25.23;49.90
8705;BME280;4389;41.932;25.904;2023-08-08T12:32:27;-16743.97;;;25.43;48.53
8705;BME280;4389;41.932;25.904;2023-08-08T12:34:57;-16741.34;;;25.33;48.69
8705;BME280;4389;41.932;25.904;2023-08-08T12:37:23;-16746.09;;;25.51;49.66
8705;BME280;4389;41.932;25.904;2023-08-08T12:39:51;-16746.34;;;25.52;47.40
8705;BME280;4389;41.932;25.904;2023-08-08T12:42:18;-16748.19;;;25.59;47.75
8705;BME280;4389;41.932;25.904;2023-08-08T12:44:45;-16744.78;;;25.46;47.94
8705;BME280;4389;41.932;25.904;2023-08-08T12:47:12;-16750.03;;;25.66;47.78
8705;BME280;4389;41.932;25.904;2023-08-08T12:49:41;-16753.22;;;25.78;47.96
8705;BME280;4389;41.932;25.904;2023-08-08T12:52:08;-16756.91;;;25.92;48.63
8705;BME280;4389;41.932;25.904;2023-08-08T12:54:34;-16756.91;;;25.92;47.36
8705;BME280;4389;41.932;25.904;2023-08-08T12:57:02;-16752.81;;;25.76;47.95
8705;BME280;4389;41.932;25.904;2023-08-08T12:59:29;-16752.81;;;25.76;48.42
8705;BME280;4389;41.932;25.904;2023-08-08T13:01:56;-16750.44;;;25.67;47.97